createdAt,value
2023-02-19T00:03:52.363Z,12.29
2023-02-19T00:08:54.578Z,12.25
2023-02-19T00:13:56.000Z,12.43
2023-02-19T00:19:03.517Z,12.39
2023-02-19T00:24:05.841Z,12.52
2023-02-19T00:29:07.404Z,12.59
2023-02-19T00:34:15.745Z,12.55
2023-02-19T00:39:18.892Z,12.64
2023-02-19T00:44:18.430Z,12.70
2023-02-19T00:49:24.514Z,12.55
2023-02-19T00:54:29.387Z,12.51
2023-02-19T00:59:33.003Z,12.58
2023-02-19T01:04:33.981Z,12.51
2023-02-19T01:09:34.975Z,12.79
2023-02-19T01:14:34.703Z,12.83
2023-02-19T01:19:38.642Z,12.79
2023-02-19T01:24:39.567Z,12.86
2023-02-19T01:29:41.098Z,12.67
2023-02-19T01:34:42.317Z,12.43
2023-02-19T01:39:41.906Z,12.37
2023-02-19T01:45:27.042Z,12.14
2023-02-19T01:50:34.221Z,12.01
2023-02-19T01:55:36.389Z,12.16
2023-02-19T02:00:36.429Z,12.01
2023-02-19T02:05:50.902Z,11.74
2023-02-19T02:10:52.417Z,11.90
2023-02-19T02:16:00.839Z,11.87
2023-02-19T02:21:48.038Z,11.60
2023-02-19T02:27:04.544Z,11.61
2023-02-19T02:32:13.343Z,11.46
2023-02-19T02:37:14.165Z,11.66
2023-02-19T02:42:30.551Z,11.65
2023-02-19T02:47:43.211Z,11.53
2023-02-19T02:53:02.975Z,11.40
2023-02-19T02:58:03.207Z,11.41
2023-02-19T03:03:06.908Z,11.25
2023-02-19T03:08:19.223Z,11.10
2023-02-19T03:13:42.931Z,11.21
2023-02-19T03:19:05.015Z,11.09
2023-02-19T03:24:24.925Z,11.20
2023-02-19T03:29:27.889Z,11.11
2023-02-19T03:34:41.489Z,11.01
2023-02-19T03:39:47.494Z,10.96
2023-02-19T03:45:05.673Z,11.00
2023-02-19T03:50:18.535Z,10.84
2023-02-19T03:55:27.458Z,10.74
2023-02-19T04:00:35.473Z,10.58
2023-02-19T04:05:43.447Z,10.57
2023-02-19T04:10:44.537Z,10.69
2023-02-19T04:15:48.191Z,10.58
2023-02-19T04:20:51.152Z,10.22
2023-02-19T04:25:56.763Z,10.13
2023-02-19T04:30:56.382Z,10.18
2023-02-19T04:35:59.166Z,10.22
2023-02-19T04:40:58.787Z,10.24
2023-02-19T04:46:03.046Z,10.24
2023-02-19T04:51:09.131Z,10.26
2023-02-19T04:56:09.990Z,10.07
2023-02-19T05:01:12.644Z,10.06
2023-02-19T05:06:18.106Z,9.90
2023-02-19T05:11:19.373Z,9.94
2023-02-19T05:16:19.524Z,9.92
2023-02-19T05:21:24.359Z,9.83
2023-02-19T05:26:25.595Z,9.85
2023-02-19T05:31:25.544Z,9.64
2023-02-19T05:36:28.797Z,9.65
2023-02-19T05:41:47.300Z,9.77
2023-02-19T05:47:03.108Z,9.76
2023-02-19T05:52:05.972Z,9.67
2023-02-19T05:57:05.738Z,9.63
2023-02-19T06:02:05.440Z,9.56
2023-02-19T06:07:16.599Z,9.56
2023-02-19T06:12:26.040Z,9.49
2023-02-19T06:17:29.916Z,9.44
2023-02-19T06:22:34.005Z,9.34
2023-02-19T06:27:43.767Z,9.40
2023-02-19T06:32:47.113Z,9.41
2023-02-19T06:37:52.612Z,9.48
2023-02-19T06:42:56.056Z,9.71
2023-02-19T06:48:08.044Z,9.64
2023-02-19T06:53:12.618Z,9.59
2023-02-19T06:58:12.401Z,9.75
2023-02-19T07:03:11.922Z,9.92
2023-02-19T07:08:17.644Z,10.18
2023-02-19T07:13:17.230Z,10.19
2023-02-19T07:18:18.708Z,10.30
2023-02-19T07:23:22.242Z,10.64
2023-02-19T07:28:37.181Z,10.75
2023-02-19T07:33:59.748Z,10.97
2023-02-19T07:39:05.056Z,11.21
2023-02-19T07:44:05.648Z,11.53
2023-02-19T07:49:38.844Z,11.51
2023-02-19T07:54:46.538Z,11.74
2023-02-19T07:59:56.334Z,11.87
2023-02-19T08:04:57.911Z,11.95
2023-02-19T08:10:27.267Z,12.09
2023-02-19T08:21:03.374Z,12.41
2023-02-19T08:26:08.200Z,12.72
2023-02-19T08:31:10.731Z,12.81
2023-02-19T08:36:23.957Z,12.86
2023-02-19T08:41:27.239Z,13.06
2023-02-19T08:46:28.483Z,13.19
2023-02-19T08:51:33.128Z,13.37
2023-02-19T08:56:50.480Z,13.31
2023-02-19T09:02:01.762Z,13.67
2023-02-19T09:07:04.769Z,13.91
2023-02-19T09:12:06.844Z,14.04
2023-02-19T09:17:08.014Z,14.28
2023-02-19T09:22:08.029Z,14.31
2023-02-19T09:27:11.145Z,14.52
2023-02-19T09:32:15.967Z,14.70
2023-02-19T09:37:26.800Z,15.03
2023-02-19T09:42:37.878Z,15.31
2023-02-19T09:47:38.818Z,15.76
2023-02-19T09:52:47.863Z,16.00
2023-02-19T09:57:50.571Z,16.44
2023-02-19T10:03:09.132Z,16.63
2023-02-19T10:08:21.675Z,16.82
2023-02-19T10:13:35.835Z,17.24
2023-02-19T10:18:43.974Z,17.23
2023-02-19T10:23:44.815Z,17.24
2023-02-19T10:28:56.101Z,17.36
2023-02-19T10:34:03.018Z,17.90
2023-02-19T10:39:09.214Z,18.10
2023-02-19T10:44:24.560Z,18.47
2023-02-19T10:49:28.390Z,18.15
2023-02-19T10:54:33.032Z,18.78
2023-02-19T10:59:37.266Z,19.14
2023-02-19T11:04:38.744Z,19.42
2023-02-19T11:09:43.382Z,19.45
2023-02-19T11:14:47.192Z,19.30
2023-02-19T11:19:49.728Z,19.37
2023-02-19T11:24:58.511Z,20.03
2023-02-19T11:30:31.878Z,18.77
2023-02-19T11:35:33.954Z,18.80
2023-02-19T11:40:44.652Z,18.72
2023-02-19T11:45:53.691Z,18.43
2023-02-19T11:51:17.148Z,18.14
2023-02-19T11:56:22.649Z,18.12
2023-02-19T12:01:33.438Z,18.05
2023-02-19T12:06:48.903Z,18.22
2023-02-19T12:12:04.265Z,18.40
2023-02-19T12:17:21.425Z,18.79
2023-02-19T12:22:33.694Z,18.81
2023-02-19T12:27:49.140Z,19.10
2023-02-19T12:33:29.012Z,19.10
2023-02-19T12:38:46.138Z,19.07
2023-02-19T12:43:55.912Z,19.44
2023-02-19T12:49:15.917Z,19.38
2023-02-19T13:01:14.232Z,19.61
2023-02-19T13:35:12.934Z,20.15
2023-02-19T13:40:43.276Z,19.71
2023-02-19T14:01:16.555Z,19.40
2023-02-19T14:40:47.477Z,17.91
2023-02-19T14:45:51.019Z,18.13
2023-02-19T14:50:52.934Z,18.23
2023-02-19T14:55:56.075Z,18.17
2023-02-19T15:00:54.891Z,18.22
2023-02-19T15:05:58.210Z,18.30
2023-02-19T15:10:58.442Z,17.96
2023-02-19T15:15:57.810Z,18.02
2023-02-19T15:21:02.511Z,17.36
2023-02-19T15:26:03.398Z,17.24
2023-02-19T15:31:14.306Z,17.32
2023-02-19T15:36:14.545Z,17.30
2023-02-19T15:41:23.071Z,17.28
2023-02-19T15:46:23.535Z,17.20
2023-02-19T15:51:28.055Z,17.21
2023-02-19T15:56:31.470Z,17.08
2023-02-19T16:01:31.736Z,17.06
2023-02-19T16:06:30.703Z,17.03
2023-02-19T16:11:36.391Z,16.95
2023-02-19T16:16:41.091Z,17.04
2023-02-19T16:21:40.225Z,17.04
2023-02-19T16:26:43.126Z,16.96
2023-02-19T16:31:49.636Z,17.05
2023-02-19T16:36:49.560Z,16.97
2023-02-19T16:42:21.005Z,16.93
2023-02-19T16:47:45.295Z,16.80
2023-02-19T16:52:54.796Z,16.75
2023-02-19T16:57:55.474Z,16.48
2023-02-19T17:02:56.736Z,16.24
2023-02-19T17:07:55.641Z,16.27
2023-02-19T17:12:56.747Z,16.32
2023-02-19T17:17:55.741Z,16.27
2023-02-19T17:22:54.555Z,16.15
2023-02-19T17:27:53.451Z,15.99
2023-02-19T17:32:53.703Z,15.62
2023-02-19T17:37:53.552Z,15.86
2023-02-19T17:42:52.463Z,15.62
2023-02-19T17:47:51.479Z,15.73
2023-02-19T17:52:51.775Z,15.83
2023-02-19T17:57:52.184Z,16.01
2023-02-19T18:02:50.951Z,16.01
2023-02-19T18:07:52.117Z,15.99
2023-02-19T18:12:51.521Z,15.98
2023-02-19T18:17:50.690Z,15.64
2023-02-19T18:22:53.660Z,15.36
2023-02-19T18:27:54.028Z,15.67
2023-02-19T18:32:58.719Z,15.38
2023-02-19T18:38:00.281Z,15.27
2023-02-19T18:42:59.979Z,15.13
2023-02-19T18:48:01.153Z,15.28
2023-02-19T18:53:03.833Z,15.12
2023-02-19T18:58:06.361Z,15.12
2023-02-19T19:03:09.603Z,14.98
2023-02-19T19:08:09.929Z,14.82
2023-02-19T19:13:11.003Z,14.89
2023-02-19T19:18:13.338Z,14.93
2023-02-19T19:23:15.370Z,14.55
2023-02-19T19:28:14.245Z,14.46
2023-02-19T19:33:15.108Z,14.52
2023-02-19T19:38:16.343Z,14.44
2023-02-19T19:43:16.974Z,14.67
2023-02-19T19:48:16.123Z,14.67
2023-02-19T19:53:22.761Z,14.71
2023-02-19T19:58:26.068Z,14.80
2023-02-19T20:03:30.844Z,14.66
2023-02-19T20:08:34.114Z,14.61
2023-02-19T20:13:34.553Z,14.48
2023-02-19T20:18:36.306Z,14.52
2023-02-19T20:23:38.810Z,14.37
2023-02-19T20:28:38.244Z,14.33
2023-02-19T20:33:40.018Z,14.28
2023-02-19T20:38:43.602Z,14.23
2023-02-19T20:43:45.138Z,14.41
2023-02-19T20:48:47.185Z,14.37
2023-02-19T20:53:48.217Z,14.24
2023-02-19T20:58:49.122Z,14.16
2023-02-19T21:03:51.278Z,14.03
2023-02-19T21:08:54.934Z,13.90
2023-02-19T21:14:02.511Z,14.14
2023-02-19T21:19:03.759Z,14.09
2023-02-19T21:24:09.415Z,13.95
2023-02-19T21:29:12.854Z,13.70
2023-02-19T21:34:16.057Z,13.75
2023-02-19T21:39:49.242Z,13.67
2023-02-19T21:44:49.768Z,13.57
2023-02-19T21:49:49.782Z,13.65
2023-02-19T21:54:52.679Z,13.50
2023-02-19T21:59:52.781Z,13.29
2023-02-19T22:04:57.040Z,13.34
2023-02-19T22:09:59.241Z,13.30
2023-02-19T22:15:23.230Z,13.20
2023-02-19T22:20:22.405Z,13.26
2023-02-19T22:25:22.859Z,13.05
2023-02-19T22:30:22.086Z,12.98
2023-02-19T22:35:20.983Z,12.97
2023-02-19T22:40:19.889Z,12.96
2023-02-19T22:45:20.030Z,13.09
2023-02-19T22:50:20.462Z,13.12
2023-02-19T22:55:19.574Z,12.93
2023-02-19T23:00:22.410Z,12.78
2023-02-19T23:05:22.699Z,12.73
2023-02-19T23:10:21.476Z,12.69
2023-02-19T23:15:21.808Z,12.39
2023-02-19T23:20:20.593Z,12.31
2023-02-19T23:25:19.459Z,12.28
2023-02-19T23:30:18.764Z,12.28
2023-02-19T23:35:19.222Z,12.08
2023-02-19T23:40:19.043Z,11.96
2023-02-19T23:45:18.567Z,11.96
2023-02-19T23:50:19.023Z,11.93
2023-02-19T23:55:17.986Z,11.68
